createdAt,value
2017-10-11T00:02:03.716Z,26.57
2017-10-11T00:04:32.051Z,25.40
2017-10-11T00:07:00.656Z,26.60
2017-10-11T00:09:29.340Z,24.90
2017-10-11T00:11:57.701Z,24.50
2017-10-11T00:14:26.253Z,24.63
2017-10-11T00:16:56.044Z,23.43
2017-10-11T00:19:25.183Z,25.73
2017-10-11T00:21:53.647Z,25.90
2017-10-11T00:24:21.991Z,24.30
2017-10-11T00:26:50.656Z,22.97
2017-10-11T00:29:19.275Z,21.83
2017-10-11T00:31:48.179Z,21.20
2017-10-11T00:34:17.298Z,21.57
2017-10-11T00:36:46.383Z,21.63
2017-10-11T00:39:14.772Z,19.13
2017-10-11T00:41:43.839Z,18.43
2017-10-11T00:44:12.976Z,18.00
2017-10-11T00:46:41.324Z,17.40
2017-10-11T00:49:10.463Z,16.80
2017-10-11T00:51:41.800Z,16.03
2017-10-11T00:54:10.598Z,14.03
2017-10-11T00:56:38.964Z,13.77
2017-10-11T00:59:08.014Z,14.53
2017-10-11T01:01:36.590Z,14.40
2017-10-11T01:04:05.188Z,12.90
2017-10-11T01:06:35.038Z,14.60
2017-10-11T01:09:03.836Z,12.07
2017-10-11T01:11:32.183Z,13.20
2017-10-11T01:14:01.340Z,12.47
2017-10-11T01:16:30.489Z,13.30
2017-10-11T01:18:58.860Z,13.03
2017-10-11T01:21:27.764Z,12.17
2017-10-11T01:23:57.880Z,13.30
2017-10-11T01:26:26.446Z,13.03
2017-10-11T01:28:55.592Z,13.30
2017-10-11T01:31:24.806Z,13.50
2017-10-11T01:33:53.150Z,13.13
2017-10-11T01:36:21.511Z,13.57
2017-10-11T01:38:51.233Z,13.90
2017-10-11T01:41:19.590Z,13.90
2017-10-11T01:43:48.907Z,14.17
2017-10-11T01:46:19.277Z,13.73
2017-10-11T01:48:47.640Z,16.00
2017-10-11T01:51:16.025Z,15.27
2017-10-11T01:53:44.917Z,14.40
2017-10-11T01:56:13.289Z,15.37
2017-10-11T01:58:41.682Z,16.63
2017-10-11T02:01:10.318Z,17.27
2017-10-11T02:03:39.680Z,16.20
2017-10-11T02:06:08.655Z,17.40
2017-10-11T02:08:37.485Z,17.37
2017-10-11T02:11:06.617Z,18.37
2017-10-11T02:13:36.636Z,19.20
2017-10-11T02:16:05.002Z,18.50
2017-10-11T02:18:34.335Z,19.33
2017-10-11T02:21:03.160Z,19.07
2017-10-11T02:23:31.542Z,17.53
2017-10-11T02:26:00.598Z,18.43
2017-10-11T02:28:29.119Z,19.00
2017-10-11T02:30:57.492Z,18.40
2017-10-11T02:33:26.960Z,19.20
2017-10-11T02:35:55.331Z,19.67
2017-10-11T02:38:24.463Z,19.20
2017-10-11T02:40:53.339Z,19.70
2017-10-11T02:43:22.240Z,19.57
2017-10-11T02:45:51.957Z,20.23
2017-10-11T02:48:20.315Z,19.60
2017-10-11T02:50:49.634Z,20.07
2017-10-11T02:53:18.009Z,19.87
2017-10-11T02:55:47.351Z,19.60
2017-10-11T02:58:16.514Z,19.37
2017-10-11T03:00:45.916Z,19.50
2017-10-11T03:03:14.739Z,19.50
2017-10-11T03:05:43.900Z,19.90
2017-10-11T03:08:13.662Z,19.33
2017-10-11T03:10:43.100Z,19.57
2017-10-11T03:13:12.179Z,19.43
2017-10-11T03:15:41.433Z,20.93
2017-10-11T03:18:10.202Z,20.27
2017-10-11T03:20:38.581Z,20.70
2017-10-11T03:23:06.922Z,21.23
2017-10-11T03:25:36.338Z,20.50
2017-10-11T03:28:04.933Z,21.07
2017-10-11T03:30:34.071Z,20.30
2017-10-11T03:33:02.413Z,19.77
2017-10-11T03:35:30.919Z,20.87
2017-10-11T03:37:59.268Z,20.87
2017-10-11T03:40:28.183Z,20.30
2017-10-11T03:42:56.806Z,21.40
2017-10-11T03:45:25.149Z,21.47
2017-10-11T03:47:53.798Z,21.27
2017-10-11T03:50:22.423Z,21.13
2017-10-11T03:52:50.778Z,21.20
2017-10-11T03:55:19.136Z,22.13
2017-10-11T03:57:47.796Z,22.60
2017-10-11T04:00:17.005Z,22.20
2017-10-11T04:02:46.258Z,22.87
2017-10-11T04:05:14.643Z,22.93
2017-10-11T04:07:43.927Z,22.43
2017-10-11T04:10:12.305Z,23.17
2017-10-11T04:12:40.666Z,20.80
2017-10-11T04:15:09.030Z,22.00
2017-10-11T04:17:38.406Z,20.87
2017-10-11T04:20:08.378Z,21.50
2017-10-11T04:22:37.511Z,22.90
2017-10-11T04:25:05.854Z,23.53
2017-10-11T04:27:35.099Z,22.40
2017-10-11T04:30:04.904Z,22.07
2017-10-11T04:32:34.991Z,22.33
2017-10-11T04:35:04.710Z,22.43
2017-10-11T04:37:34.303Z,21.80
2017-10-11T04:40:02.880Z,23.00
2017-10-11T04:42:31.301Z,19.90
2017-10-11T04:45:00.439Z,21.17
2017-10-11T04:47:29.736Z,22.23
2017-10-11T04:49:59.038Z,21.37
2017-10-11T04:52:27.635Z,20.20
2017-10-11T04:54:56.748Z,20.70
2017-10-11T04:57:26.047Z,19.83
2017-10-11T04:59:54.394Z,21.03
2017-10-11T05:02:23.648Z,20.87
2017-10-11T05:04:54.048Z,20.30
2017-10-11T05:07:23.922Z,19.17
2017-10-11T05:09:56.205Z,20.90
2017-10-11T05:12:24.631Z,19.33
2017-10-11T05:14:53.845Z,18.73
2017-10-11T05:17:22.183Z,19.93
2017-10-11T05:19:50.570Z,20.00
2017-10-11T05:22:19.827Z,19.23
2017-10-11T05:24:48.915Z,19.80
2017-10-11T05:27:17.952Z,20.13
2017-10-11T05:29:46.301Z,19.83
2017-10-11T05:32:15.585Z,19.00
2017-10-11T05:34:45.306Z,19.60
2017-10-11T05:37:13.658Z,18.47
2017-10-11T05:39:42.240Z,19.63
2017-10-11T05:42:11.636Z,18.60
2017-10-11T05:44:40.653Z,17.83
2017-10-11T05:47:09.007Z,18.23
2017-10-11T05:49:37.561Z,18.40
2017-10-11T05:52:05.918Z,18.23
2017-10-11T05:54:35.062Z,18.03
2017-10-11T05:57:04.233Z,17.43
2017-10-11T05:59:33.408Z,18.50
2017-10-11T06:02:02.545Z,18.37
2017-10-11T06:04:30.904Z,18.40
2017-10-11T06:07:00.082Z,15.83
2017-10-11T06:09:28.447Z,17.70
2017-10-11T06:11:56.994Z,17.70
2017-10-11T06:14:26.351Z,16.93
2017-10-11T06:16:55.601Z,16.83
2017-10-11T06:19:25.974Z,18.10
2017-10-11T06:21:55.209Z,17.23
2017-10-11T06:24:24.274Z,16.63
2017-10-11T06:26:54.112Z,18.07
2017-10-11T06:29:23.389Z,16.97
2017-10-11T06:31:53.534Z,16.50
2017-10-11T06:34:23.484Z,16.77
2017-10-11T06:36:52.791Z,16.33
2017-10-11T06:39:21.166Z,17.00
2017-10-11T06:41:49.910Z,16.20
2017-10-11T06:44:19.333Z,17.30
2017-10-11T06:46:47.941Z,16.77
2017-10-11T06:49:16.372Z,15.90
2017-10-11T06:51:44.774Z,16.50
2017-10-11T06:54:13.149Z,16.20
2017-10-11T06:56:42.662Z,15.30
2017-10-11T06:59:11.072Z,15.27
2017-10-11T07:01:39.482Z,15.20
2017-10-11T07:04:08.826Z,13.97
2017-10-11T07:06:37.182Z,14.33
2017-10-11T07:09:07.093Z,13.07
2017-10-11T07:11:37.959Z,12.53
2017-10-11T07:14:06.360Z,13.90
2017-10-11T07:16:36.778Z,11.90
2017-10-11T07:19:06.012Z,10.70
2017-10-11T07:21:35.148Z,11.97
2017-10-11T07:24:03.928Z,12.53
2017-10-11T07:26:32.959Z,12.67
2017-10-11T07:29:02.148Z,13.03
2017-10-11T07:31:31.116Z,13.53
2017-10-11T07:33:59.479Z,13.60
2017-10-11T07:36:28.614Z,13.70
2017-10-11T07:38:58.499Z,13.70
2017-10-11T07:41:26.879Z,13.40
2017-10-11T07:43:57.131Z,14.13
2017-10-11T07:46:27.286Z,11.73
2017-10-11T07:48:55.634Z,12.53
2017-10-11T07:51:24.279Z,13.83
2017-10-11T07:53:55.545Z,13.13
2017-10-11T07:56:24.727Z,13.83
2017-10-11T07:58:53.093Z,12.40
2017-10-11T08:01:22.970Z,13.00
2017-10-11T08:03:51.311Z,12.80
2017-10-11T08:06:19.693Z,12.20
2017-10-11T08:08:48.106Z,12.13
2017-10-11T08:11:16.962Z,12.60
2017-10-11T08:13:46.998Z,13.30
2017-10-11T08:16:18.039Z,12.63
2017-10-11T08:18:46.407Z,12.67
2017-10-11T08:21:15.329Z,12.60
2017-10-11T08:23:45.634Z,12.20
2017-10-11T08:26:14.253Z,12.40
2017-10-11T08:28:43.537Z,12.43
2017-10-11T08:31:12.477Z,12.63
2017-10-11T08:33:43.235Z,12.20
2017-10-11T08:36:12.215Z,13.00
2017-10-11T08:38:40.570Z,10.57
2017-10-11T08:41:09.787Z,10.77
2017-10-11T08:43:39.836Z,12.30
2017-10-11T08:46:10.102Z,9.60
2017-10-11T08:48:39.626Z,9.43
2017-10-11T08:51:08.162Z,9.60
2017-10-11T08:53:37.126Z,8.93
2017-10-11T08:56:07.299Z,10.03
2017-10-11T08:58:38.336Z,10.13
2017-10-11T09:01:08.909Z,10.27
2017-10-11T09:03:39.487Z,9.80
2017-10-11T09:06:08.527Z,10.57
2017-10-11T09:08:36.874Z,10.60
2017-10-11T09:11:05.604Z,11.50
2017-10-11T09:13:34.593Z,11.50
2017-10-11T09:16:03.387Z,13.33
2017-10-11T09:18:33.727Z,13.90
2017-10-11T09:21:04.415Z,14.60
2017-10-11T09:23:32.793Z,15.43
2017-10-11T09:26:02.054Z,17.07
2017-10-11T09:28:30.918Z,17.73
2017-10-11T09:30:59.283Z,18.90
2017-10-11T09:33:29.369Z,17.80
2017-10-11T09:35:59.167Z,18.70
2017-10-11T09:38:27.569Z,18.13
2017-10-11T09:40:56.603Z,19.70
2017-10-11T09:43:25.681Z,19.13
2017-10-11T09:45:55.611Z,20.03
2017-10-11T09:48:24.135Z,19.13
2017-10-11T09:50:53.282Z,17.70
2017-10-11T09:53:22.473Z,15.17
2017-10-11T09:55:52.164Z,14.00
2017-10-11T09:58:21.261Z,12.47
2017-10-11T10:00:49.619Z,13.20
2017-10-11T10:03:18.004Z,14.80
2017-10-11T10:05:47.400Z,12.97
2017-10-11T10:08:15.748Z,14.10
2017-10-11T10:10:45.384Z,14.40
2017-10-11T10:13:15.245Z,13.47
2017-10-11T10:15:44.358Z,13.57
2017-10-11T10:18:12.731Z,13.73
2017-10-11T10:20:41.098Z,14.37
2017-10-11T10:23:10.225Z,14.03
2017-10-11T10:25:39.565Z,13.97
2017-10-11T10:28:08.575Z,14.20
2017-10-11T10:30:36.953Z,14.43
2017-10-11T10:33:06.171Z,14.10
2017-10-11T10:35:36.449Z,14.60
2017-10-11T10:38:04.803Z,15.20
2017-10-11T10:40:33.193Z,14.70
2017-10-11T10:43:02.372Z,14.43
2017-10-11T10:45:30.753Z,14.13
2017-10-11T10:47:59.136Z,13.77
2017-10-11T10:50:28.221Z,13.13
2017-10-11T10:52:57.485Z,13.90
2017-10-11T10:55:26.982Z,13.10
2017-10-11T10:57:56.260Z,15.13
2017-10-11T11:00:24.645Z,14.37
2017-10-11T11:02:53.962Z,14.83
2017-10-11T11:05:23.112Z,13.70
2017-10-11T11:07:53.703Z,13.40
2017-10-11T11:10:22.891Z,12.80
2017-10-11T11:12:51.735Z,13.33
2017-10-11T11:15:20.107Z,13.10
2017-10-11T11:17:49.682Z,11.70
2017-10-11T11:20:18.846Z,13.07
2017-10-11T11:22:47.252Z,12.60
2017-10-11T11:25:15.728Z,12.10
2017-10-11T11:27:45.346Z,13.40
2017-10-11T11:30:13.686Z,11.97
2017-10-11T11:32:42.586Z,11.77
2017-10-11T11:35:15.995Z,12.60
2017-10-11T11:37:44.636Z,11.47
2017-10-11T11:40:13.020Z,12.53
2017-10-11T11:42:42.038Z,11.57
2017-10-11T11:45:10.855Z,11.90
2017-10-11T11:47:39.513Z,11.80
2017-10-11T11:50:07.880Z,11.87
2017-10-11T11:52:38.276Z,12.57
2017-10-11T11:55:06.866Z,11.27
2017-10-11T11:57:35.250Z,11.80
2017-10-11T12:00:03.859Z,11.60
2017-10-11T12:02:33.102Z,11.87
2017-10-11T12:05:04.647Z,11.20
2017-10-11T12:07:33.029Z,12.07
2017-10-11T12:10:03.729Z,9.40
2017-10-11T12:12:32.441Z,10.40
2017-10-11T12:15:00.828Z,10.50
2017-10-11T12:17:36.320Z,10.90
2017-10-11T12:20:06.074Z,10.10
2017-10-11T12:22:34.911Z,10.90
2017-10-11T12:25:03.656Z,9.73
2017-10-11T12:27:32.145Z,10.97
2017-10-11T12:30:00.838Z,9.90
2017-10-11T12:32:29.303Z,9.50
2017-10-11T12:34:58.549Z,8.90
2017-10-11T12:37:27.080Z,9.60
2017-10-11T12:39:55.490Z,9.83
2017-10-11T12:42:25.406Z,9.73
2017-10-11T12:44:53.914Z,10.40
2017-10-11T12:47:22.480Z,10.40
2017-10-11T12:49:51.952Z,9.63
2017-10-11T12:52:21.197Z,9.20
2017-10-11T12:54:51.205Z,8.47
2017-10-11T12:57:19.851Z,8.00
2017-10-11T12:59:48.249Z,10.07
2017-10-11T13:02:16.655Z,9.07
2017-10-11T13:04:49.237Z,8.60
2017-10-11T13:07:18.534Z,10.10
2017-10-11T13:09:47.661Z,8.80
2017-10-11T13:12:17.496Z,10.10
2017-10-11T13:14:45.892Z,8.70
2017-10-11T13:17:14.924Z,9.50
2017-10-11T13:19:44.404Z,8.90
2017-10-11T13:22:13.165Z,9.50
2017-10-11T13:24:41.742Z,8.83
2017-10-11T13:27:13.398Z,8.50
2017-10-11T13:29:43.284Z,8.70
2017-10-11T13:32:12.477Z,9.33
2017-10-11T13:34:40.838Z,9.97
2017-10-11T13:37:09.225Z,9.20
2017-10-11T13:39:38.586Z,8.70
2017-10-11T13:42:06.997Z,9.10
2017-10-11T13:44:36.148Z,8.73
2017-10-11T13:47:04.734Z,7.50
2017-10-11T13:49:33.180Z,7.50
2017-10-11T13:52:03.394Z,7.90
2017-10-11T13:54:32.671Z,7.73
2017-10-11T13:57:02.271Z,7.03
2017-10-11T13:59:31.450Z,7.03
2017-10-11T14:02:00.050Z,6.63
2017-10-11T14:04:29.129Z,6.03
2017-10-11T14:06:57.479Z,6.20
2017-10-11T14:09:25.835Z,5.87
2017-10-11T14:11:54.388Z,5.27
2017-10-11T14:14:23.062Z,5.50
2017-10-11T14:16:53.178Z,6.03
2017-10-11T14:19:22.763Z,4.87
2017-10-11T14:21:51.634Z,5.23
2017-10-11T14:24:20.760Z,4.90
2017-10-11T14:26:49.982Z,4.47
2017-10-11T14:29:18.332Z,4.97
2017-10-11T14:31:47.700Z,4.77
2017-10-11T14:34:19.094Z,5.23
2017-10-11T14:36:48.129Z,4.40
2017-10-11T14:39:17.290Z,4.30
2017-10-11T14:41:46.627Z,5.50
2017-10-11T14:44:16.283Z,5.90
2017-10-11T14:46:44.675Z,5.37
2017-10-11T14:49:13.675Z,5.63
2017-10-11T14:51:43.685Z,5.30
2017-10-11T14:54:12.315Z,5.07
2017-10-11T14:56:42.139Z,5.17
2017-10-11T14:59:10.876Z,5.47
2017-10-11T15:01:39.294Z,5.87
2017-10-11T15:04:07.815Z,5.73
2017-10-11T15:06:36.745Z,6.47
2017-10-11T15:09:06.489Z,6.10
2017-10-11T15:11:35.983Z,6.23
2017-10-11T15:14:04.693Z,6.23
2017-10-11T15:16:33.871Z,6.60
2017-10-11T15:19:03.360Z,7.10
2017-10-11T15:21:31.771Z,6.90
2017-10-11T15:24:02.164Z,6.70
2017-10-11T15:26:31.580Z,7.60
2017-10-11T15:29:00.709Z,7.03
2017-10-11T15:31:30.648Z,6.70
2017-10-11T15:33:59.057Z,7.60
2017-10-11T15:36:28.193Z,7.10
2017-10-11T15:38:58.413Z,6.30
2017-10-11T15:41:28.396Z,6.50
2017-10-11T15:43:56.866Z,6.63
2017-10-11T15:46:26.252Z,6.57
2017-10-11T15:48:55.022Z,5.33
2017-10-11T15:51:23.574Z,5.07
2017-10-11T15:53:51.929Z,5.20
2017-10-11T15:56:20.370Z,6.00
2017-10-11T15:58:48.731Z,5.03
2017-10-11T16:01:17.852Z,5.60
2017-10-11T16:03:46.304Z,6.23
2017-10-11T16:06:15.626Z,5.63
2017-10-11T16:08:43.964Z,5.30
2017-10-11T16:11:12.394Z,5.83
2017-10-11T16:13:40.760Z,6.00
2017-10-11T16:16:09.107Z,6.33
2017-10-11T16:18:38.027Z,5.90
2017-10-11T16:21:06.396Z,5.97
2017-10-11T16:23:35.500Z,5.70
2017-10-11T16:26:05.348Z,5.50
2017-10-11T16:28:33.732Z,6.13
2017-10-11T16:31:02.895Z,6.30
2017-10-11T16:33:31.533Z,7.13
2017-10-11T16:36:00.787Z,8.13
2017-10-11T16:38:29.467Z,8.20
2017-10-11T16:40:58.349Z,6.77
2017-10-11T16:43:27.767Z,7.40
2017-10-11T16:45:56.159Z,6.97
2017-10-11T16:48:24.700Z,7.43
2017-10-11T16:50:54.591Z,6.97
2017-10-11T16:53:23.648Z,8.10
2017-10-11T16:55:52.316Z,7.63
2017-10-11T16:58:20.778Z,8.13
2017-10-11T17:00:49.944Z,7.70
2017-10-11T17:03:18.323Z,8.50
2017-10-11T17:05:46.701Z,9.20
2017-10-11T17:08:15.364Z,9.70
2017-10-11T17:10:45.226Z,9.63
2017-10-11T17:13:14.244Z,9.40
2017-10-11T17:15:43.091Z,9.13
2017-10-11T17:18:12.276Z,9.27
2017-10-11T17:20:40.627Z,8.50
2017-10-11T17:23:09.061Z,8.90
2017-10-11T17:25:38.153Z,8.83
2017-10-11T17:28:07.051Z,9.03
2017-10-11T17:30:35.392Z,8.93
2017-10-11T17:33:03.991Z,9.30
2017-10-11T17:35:33.115Z,8.60
2017-10-11T17:38:01.468Z,9.23
2017-10-11T17:40:30.059Z,9.30
2017-10-11T17:42:58.503Z,9.60
2017-10-11T17:45:27.112Z,9.23
2017-10-11T17:47:56.211Z,9.90
2017-10-11T17:50:25.266Z,8.90
2017-10-11T17:52:55.831Z,9.40
2017-10-11T17:55:24.731Z,8.90
2017-10-11T17:57:55.876Z,8.57
2017-10-11T18:00:25.748Z,9.40
2017-10-11T18:02:54.249Z,9.57
2017-10-11T18:05:22.608Z,8.40
2017-10-11T18:07:52.422Z,8.13
2017-10-11T18:10:22.500Z,8.03
2017-10-11T18:12:50.872Z,8.70
2017-10-11T18:15:19.302Z,7.77
2017-10-11T18:17:48.748Z,8.17
2017-10-11T18:20:17.141Z,8.70
2017-10-11T18:22:45.758Z,8.33
2017-10-11T18:25:14.972Z,7.60
2017-10-11T18:27:44.568Z,7.47
2017-10-11T18:30:14.640Z,8.20
2017-10-11T18:32:44.716Z,8.13
2017-10-11T18:35:13.891Z,8.47
2017-10-11T18:37:43.411Z,7.57
2017-10-11T18:40:12.142Z,7.93
2017-10-11T18:42:41.630Z,7.20
2017-10-11T18:45:10.003Z,7.30
2017-10-11T18:47:38.815Z,8.03
2017-10-11T18:50:07.272Z,7.10
2017-10-11T18:52:35.697Z,6.83
2017-10-11T18:55:04.795Z,7.30
2017-10-11T18:57:34.025Z,7.03
2017-10-11T19:00:02.611Z,6.70
2017-10-11T19:02:31.951Z,7.67
2017-10-11T19:05:02.227Z,6.90
2017-10-11T19:07:31.011Z,7.03
2017-10-11T19:09:59.417Z,7.17
2017-10-11T19:12:29.082Z,6.40
2017-10-11T19:14:58.252Z,6.63
2017-10-11T19:17:27.772Z,7.70
2017-10-11T19:19:56.855Z,6.30
2017-10-11T19:22:26.866Z,6.00
2017-10-11T19:24:55.987Z,6.80
2017-10-11T19:27:24.750Z,6.13
2017-10-11T19:29:53.160Z,6.30
2017-10-11T19:32:21.535Z,5.23
2017-10-11T19:34:50.722Z,5.60
2017-10-11T19:37:20.530Z,5.90
2017-10-11T19:39:48.994Z,6.00
2017-10-11T19:42:18.134Z,6.07
2017-10-11T19:44:46.555Z,5.50
2017-10-11T19:47:15.094Z,6.20
2017-10-11T19:49:44.605Z,6.43
2017-10-11T19:52:12.995Z,5.30
2017-10-11T19:54:42.385Z,6.27
2017-10-11T19:57:11.626Z,5.73
2017-10-11T19:59:41.488Z,5.70
2017-10-11T20:02:11.050Z,5.17
2017-10-11T20:04:41.779Z,5.30
2017-10-11T20:07:10.723Z,6.07
2017-10-11T20:09:39.500Z,5.90
2017-10-11T20:12:08.329Z,5.50
2017-10-11T20:14:36.998Z,5.63
2017-10-11T20:17:05.947Z,5.40
2017-10-11T20:19:34.396Z,5.30
2017-10-11T20:22:03.569Z,5.47
2017-10-11T20:24:32.868Z,6.40
2017-10-11T20:27:01.713Z,4.77
2017-10-11T20:29:30.591Z,6.17
2017-10-11T20:31:59.190Z,5.27
2017-10-11T20:34:28.264Z,5.70
2017-10-11T20:36:57.357Z,5.70
2017-10-11T20:39:25.832Z,6.17
2017-10-11T20:41:55.703Z,6.13
2017-10-11T20:44:25.825Z,5.50
2017-10-11T20:46:56.122Z,5.40
2017-10-11T20:49:25.718Z,5.47
2017-10-11T20:51:55.816Z,5.70
2017-10-11T20:54:29.799Z,5.50
2017-10-11T20:56:58.444Z,5.60
2017-10-11T20:59:27.591Z,6.60
2017-10-11T21:01:57.206Z,6.53
2017-10-11T21:04:27.254Z,5.77
2017-10-11T21:06:56.369Z,5.73
2017-10-11T21:09:25.642Z,5.83
2017-10-11T21:11:54.762Z,5.90
2017-10-11T21:14:23.823Z,6.83
2017-10-11T21:16:54.311Z,6.13
2017-10-11T21:19:23.601Z,6.10
2017-10-11T21:21:51.972Z,5.70
2017-10-11T21:24:20.368Z,5.73
2017-10-11T21:26:49.756Z,5.70
2017-10-11T21:29:18.119Z,5.57
2017-10-11T21:31:48.298Z,5.93
2017-10-11T21:34:16.643Z,6.13
2017-10-11T21:36:45.029Z,6.13
2017-10-11T21:39:13.908Z,6.10
2017-10-11T21:41:42.242Z,5.60
2017-10-11T21:44:11.394Z,6.40
2017-10-11T21:46:41.385Z,6.43
2017-10-11T21:49:10.415Z,7.03
2017-10-11T21:51:39.324Z,6.60
2017-10-11T21:54:08.547Z,8.03
2017-10-11T21:56:37.911Z,7.80
2017-10-11T21:59:07.582Z,7.97
2017-10-11T22:01:36.130Z,7.37
2017-10-11T22:04:04.566Z,8.67
2017-10-11T22:06:33.005Z,8.70
2017-10-11T22:09:02.219Z,9.87
2017-10-11T22:11:31.266Z,9.73
2017-10-11T22:14:00.215Z,9.47
2017-10-11T22:16:28.764Z,10.13
2017-10-11T22:18:57.757Z,8.40
2017-10-11T22:21:27.159Z,9.10
2017-10-11T22:23:55.895Z,9.87
2017-10-11T22:26:24.295Z,10.70
2017-10-11T22:28:53.563Z,9.47
2017-10-11T22:31:22.004Z,10.70
2017-10-11T22:33:50.622Z,10.27
2017-10-11T22:36:19.087Z,10.83
2017-10-11T22:38:48.284Z,10.43
2017-10-11T22:41:17.436Z,9.40
2017-10-11T22:43:46.321Z,9.90
2017-10-11T22:46:14.905Z,9.23
2017-10-11T22:48:43.464Z,9.00
2017-10-11T22:51:12.623Z,8.77
2017-10-11T22:53:42.777Z,10.13
2017-10-11T22:56:13.101Z,9.70
2017-10-11T22:58:41.720Z,8.23
2017-10-11T23:01:10.209Z,9.50
2017-10-11T23:03:38.727Z,8.77
2017-10-11T23:06:07.521Z,8.37
2017-10-11T23:08:36.654Z,8.80
2017-10-11T23:11:05.175Z,8.47
2017-10-11T23:13:34.225Z,9.57
2017-10-11T23:16:02.685Z,8.33
2017-10-11T23:18:32.952Z,8.10
2017-10-11T23:21:01.309Z,9.37
2017-10-11T23:23:29.776Z,8.10
2017-10-11T23:25:58.326Z,8.13
2017-10-11T23:28:27.462Z,8.43
2017-10-11T23:30:56.296Z,8.70
2017-10-11T23:33:24.873Z,8.10
2017-10-11T23:35:54.187Z,7.60
2017-10-11T23:38:22.574Z,7.87
2017-10-11T23:40:51.033Z,8.33
2017-10-11T23:43:19.462Z,6.70
2017-10-11T23:45:47.941Z,8.03
2017-10-11T23:48:16.857Z,7.07
2017-10-11T23:50:45.238Z,7.60
2017-10-11T23:53:13.674Z,6.50
2017-10-11T23:55:44.348Z,7.40
2017-10-11T23:58:12.770Z,7.47
